sensor_id;sensor_type;location;lat;lon;timestamp;temperature;humidity
46309;DHT22;32037;50.820;6.494;2022-08-21T00:01:51;25.20;49.20
46309;DHT22;32037;50.820;6.494;2022-08-21T00:04:21;25.20;49.40
46309;DHT22;32037;50.820;6.494;2022-08-21T00:06:57;25.10;49.30
46309;DHT22;32037;50.820;6.494;2022-08-21T00:09:26;25.20;49.30
46309;DHT22;32037;50.820;6.494;2022-08-21T00:11:54;25.20;49.30
46309;DHT22;32037;50.820;6.494;2022-08-21T00:14:23;25.20;49.40
46309;DHT22;32037;50.820;6.494;2022-08-21T00:16:57;25.20;49.30
46309;DHT22;32037;50.820;6.494;2022-08-21T00:19:27;25.20;49.30
46309;DHT22;32037;50.820;6.494;2022-08-21T00:21:57;25.10;49.20
46309;DHT22;32037;50.820;6.494;2022-08-21T00:24:26;25.10;49.10
46309;DHT22;32037;50.820;6.494;2022-08-21T00:26:55;25.10;49.10
46309;DHT22;32037;50.820;6.494;2022-08-21T00:29:23;25.10;49.10
46309;DHT22;32037;50.820;6.494;2022-08-21T00:31:52;25.10;49.10
46309;DHT22;32037;50.820;6.494;2022-08-21T00:34:21;25.10;49.00
46309;DHT22;32037;50.820;6.494;2022-08-21T00:36:50;25.10;49.00
46309;DHT22;32037;50.820;6.494;2022-08-21T00:39:20;25.10;49.00
46309;DHT22;32037;50.820;6.494;2022-08-21T00:41:48;25.10;49.10
46309;DHT22;32037;50.820;6.494;2022-08-21T00:44:17;25.10;49.10
46309;DHT22;32037;50.820;6.494;2022-08-21T00:46:45;25.10;49.00
46309;DHT22;32037;50.820;6.494;2022-08-21T00:49:14;25.10;49.10
46309;DHT22;32037;50.820;6.494;2022-08-21T00:51:45;25.10;49.10
46309;DHT22;32037;50.820;6.494;2022-08-21T00:54:16;25.10;49.10
46309;DHT22;32037;50.820;6.494;2022-08-21T00:56:49;25.10;49.10
46309;DHT22;32037;50.820;6.494;2022-08-21T00:59:19;25.10;49.10
46309;DHT22;32037;50.820;6.494;2022-08-21T01:01:49;25.10;49.00
46309;DHT22;32037;50.820;6.494;2022-08-21T01:04:19;25.10;49.10
46309;DHT22;32037;50.820;6.494;2022-08-21T01:06:48;25.10;49.10
46309;DHT22;32037;50.820;6.494;2022-08-21T01:09:19;25.10;49.00
46309;DHT22;32037;50.820;6.494;2022-08-21T01:11:49;25.10;49.00
46309;DHT22;32037;50.820;6.494;2022-08-21T01:14:18;25.10;49.10
46309;DHT22;32037;50.820;6.494;2022-08-21T01:16:50;25.10;49.10
46309;DHT22;32037;50.820;6.494;2022-08-21T01:19:21;25.10;49.10
46309;DHT22;32037;50.820;6.494;2022-08-21T01:21:52;25.10;49.10
46309;DHT22;32037;50.820;6.494;2022-08-21T01:24:21;25.00;49.10
46309;DHT22;32037;50.820;6.494;2022-08-21T01:26:51;25.00;49.10
46309;DHT22;32037;50.820;6.494;2022-08-21T01:29:28;25.00;49.10
46309;DHT22;32037;50.820;6.494;2022-08-21T01:31:59;25.00;49.00
46309;DHT22;32037;50.820;6.494;2022-08-21T01:34:27;25.00;49.10
46309;DHT22;32037;50.820;6.494;2022-08-21T01:36:57;25.00;49.00
46309;DHT22;32037;50.820;6.494;2022-08-21T01:39:26;25.00;49.00
46309;DHT22;32037;50.820;6.494;2022-08-21T01:41:55;25.00;49.10
46309;DHT22;32037;50.820;6.494;2022-08-21T01:44:24;25.00;49.00
46309;DHT22;32037;50.820;6.494;2022-08-21T01:46:54;25.00;49.00
46309;DHT22;32037;50.820;6.494;2022-08-21T01:49:23;25.00;49.00
46309;DHT22;32037;50.820;6.494;2022-08-21T01:51:52;25.00;50.20
46309;DHT22;32037;50.820;6.494;2022-08-21T01:54:22;25.00;48.90
46309;DHT22;32037;50.820;6.494;2022-08-21T01:56:52;25.00;48.90
46309;DHT22;32037;50.820;6.494;2022-08-21T01:59:22;25.00;48.90
46309;DHT22;32037;50.820;6.494;2022-08-21T02:01:52;25.00;48.90
46309;DHT22;32037;50.820;6.494;2022-08-21T02:04:22;25.00;48.90
46309;DHT22;32037;50.820;6.494;2022-08-21T02:06:51;25.00;49.00
46309;DHT22;32037;50.820;6.494;2022-08-21T02:09:19;25.00;49.00
46309;DHT22;32037;50.820;6.494;2022-08-21T02:11:52;24.90;48.90
46309;DHT22;32037;50.820;6.494;2022-08-21T02:14:20;24.90;48.90
46309;DHT22;32037;50.820;6.494;2022-08-21T02:16:59;24.90;48.90
46309;DHT22;32037;50.820;6.494;2022-08-21T02:19:36;24.90;48.80
46309;DHT22;32037;50.820;6.494;2022-08-21T02:22:07;24.90;48.90
46309;DHT22;32037;50.820;6.494;2022-08-21T02:24:37;24.90;48.90
46309;DHT22;32037;50.820;6.494;2022-08-21T02:27:22;24.90;48.90
46309;DHT22;32037;50.820;6.494;2022-08-21T02:29:54;24.90;48.90
46309;DHT22;32037;50.820;6.494;2022-08-21T02:32:23;24.90;48.80
46309;DHT22;32037;50.820;6.494;2022-08-21T02:34:51;24.90;48.90
46309;DHT22;32037;50.820;6.494;2022-08-21T02:37:20;24.90;48.90
46309;DHT22;32037;50.820;6.494;2022-08-21T02:39:50;24.90;48.90
46309;DHT22;32037;50.820;6.494;2022-08-21T02:42:18;24.90;48.70
46309;DHT22;32037;50.820;6.494;2022-08-21T02:44:48;24.90;48.90
46309;DHT22;32037;50.820;6.494;2022-08-21T02:47:17;24.90;48.90
46309;DHT22;32037;50.820;6.494;2022-08-21T02:49:46;24.90;48.90
46309;DHT22;32037;50.820;6.494;2022-08-21T02:52:14;24.90;48.90
46309;DHT22;32037;50.820;6.494;2022-08-21T02:54:43;24.90;48.90
46309;DHT22;32037;50.820;6.494;2022-08-21T02:57:11;24.90;48.90
46309;DHT22;32037;50.820;6.494;2022-08-21T02:59:40;24.90;48.90
46309;DHT22;32037;50.820;6.494;2022-08-21T03:02:10;24.80;48.90
46309;DHT22;32037;50.820;6.494;2022-08-21T03:04:39;24.80;48.90
46309;DHT22;32037;50.820;6.494;2022-08-21T03:07:12;24.80;48.90
46309;DHT22;32037;50.820;6.494;2022-08-21T03:09:42;24.80;48.80
46309;DHT22;32037;50.820;6.494;2022-08-21T03:12:22;24.80;48.90
46309;DHT22;32037;50.820;6.494;2022-08-21T03:14:53;24.80;48.80
46309;DHT22;32037;50.820;6.494;2022-08-21T03:17:23;24.80;48.90
46309;DHT22;32037;50.820;6.494;2022-08-21T03:19:56;24.80;48.90
46309;DHT22;32037;50.820;6.494;2022-08-21T03:22:26;24.80;48.90
46309;DHT22;32037;50.820;6.494;2022-08-21T03:24:57;24.80;49.00
46309;DHT22;32037;50.820;6.494;2022-08-21T03:27:27;24.80;48.90
46309;DHT22;32037;50.820;6.494;2022-08-21T03:29:56;24.80;48.90
46309;DHT22;32037;50.820;6.494;2022-08-21T03:32:27;24.70;48.40
46309;DHT22;32037;50.820;6.494;2022-08-21T03:34:56;24.70;48.50
46309;DHT22;32037;50.820;6.494;2022-08-21T03:37:24;24.70;48.50
46309;DHT22;32037;50.820;6.494;2022-08-21T03:39:53;24.70;48.60
46309;DHT22;32037;50.820;6.494;2022-08-21T03:42:22;24.70;48.90
46309;DHT22;32037;50.820;6.494;2022-08-21T03:44:50;24.70;48.60
46309;DHT22;32037;50.820;6.494;2022-08-21T03:47:19;24.70;48.80
46309;DHT22;32037;50.820;6.494;2022-08-21T03:49:50;24.70;48.80
46309;DHT22;32037;50.820;6.494;2022-08-21T03:52:19;24.70;48.80
46309;DHT22;32037;50.820;6.494;2022-08-21T03:54:47;24.70;48.80
46309;DHT22;32037;50.820;6.494;2022-08-21T03:57:19;24.70;48.80
46309;DHT22;32037;50.820;6.494;2022-08-21T03:59:48;24.70;48.90
46309;DHT22;32037;50.820;6.494;2022-08-21T04:02:20;24.70;48.80
46309;DHT22;32037;50.820;6.494;2022-08-21T04:04:50;24.70;48.90
46309;DHT22;32037;50.820;6.494;2022-08-21T04:07:19;24.70;49.00
46309;DHT22;32037;50.820;6.494;2022-08-21T04:09:47;24.70;49.00
46309;DHT22;32037;50.820;6.494;2022-08-21T04:12:16;24.70;49.00
46309;DHT22;32037;50.820;6.494;2022-08-21T04:14:46;24.70;49.00
46309;DHT22;32037;50.820;6.494;2022-08-21T04:17:14;24.70;49.00
46309;DHT22;32037;50.820;6.494;2022-08-21T04:19:43;24.60;49.00
46309;DHT22;32037;50.820;6.494;2022-08-21T04:22:20;24.60;48.90
46309;DHT22;32037;50.820;6.494;2022-08-21T04:24:49;24.70;49.10
46309;DHT22;32037;50.820;6.494;2022-08-21T04:27:18;24.60;49.00
46309;DHT22;32037;50.820;6.494;2022-08-21T04:29:46;24.60;48.90
46309;DHT22;32037;50.820;6.494;2022-08-21T04:32:22;24.60;48.90
46309;DHT22;32037;50.820;6.494;2022-08-21T04:34:56;24.60;48.90
46309;DHT22;32037;50.820;6.494;2022-08-21T04:37:27;24.60;48.80
46309;DHT22;32037;50.820;6.494;2022-08-21T04:39:56;24.60;48.80
46309;DHT22;32037;50.820;6.494;2022-08-21T04:42:26;24.50;48.60
46309;DHT22;32037;50.820;6.494;2022-08-21T04:44:56;24.60;48.80
46309;DHT22;32037;50.820;6.494;2022-08-21T04:47:24;24.60;48.90
46309;DHT22;32037;50.820;6.494;2022-08-21T04:50:13;24.60;48.90
46309;DHT22;32037;50.820;6.494;2022-08-21T04:52:54;24.60;48.90
46309;DHT22;32037;50.820;6.494;2022-08-21T04:55:24;24.60;48.80
46309;DHT22;32037;50.820;6.494;2022-08-21T04:57:55;24.50;48.70
46309;DHT22;32037;50.820;6.494;2022-08-21T05:00:25;24.50;48.90
46309;DHT22;32037;50.820;6.494;2022-08-21T05:02:55;24.50;48.70
46309;DHT22;32037;50.820;6.494;2022-08-21T05:05:28;24.50;48.70
46309;DHT22;32037;50.820;6.494;2022-08-21T05:08:01;24.50;48.80
46309;DHT22;32037;50.820;6.494;2022-08-21T05:10:31;24.50;48.80
46309;DHT22;32037;50.820;6.494;2022-08-21T05:13:00;24.50;48.70
46309;DHT22;32037;50.820;6.494;2022-08-21T05:15:29;24.50;48.80
46309;DHT22;32037;50.820;6.494;2022-08-21T05:17:58;24.50;48.90
46309;DHT22;32037;50.820;6.494;2022-08-21T05:20:30;24.50;48.90
46309;DHT22;32037;50.820;6.494;2022-08-21T05:23:06;24.50;48.80
46309;DHT22;32037;50.820;6.494;2022-08-21T05:25:36;24.50;48.80
46309;DHT22;32037;50.820;6.494;2022-08-21T05:28:06;24.50;48.80
46309;DHT22;32037;50.820;6.494;2022-08-21T05:30:35;24.50;48.80
46309;DHT22;32037;50.820;6.494;2022-08-21T05:33:05;24.50;48.80
46309;DHT22;32037;50.820;6.494;2022-08-21T05:35:34;24.50;48.80
46309;DHT22;32037;50.820;6.494;2022-08-21T05:38:05;24.50;48.80
46309;DHT22;32037;50.820;6.494;2022-08-21T05:40:43;24.50;48.90
46309;DHT22;32037;50.820;6.494;2022-08-21T05:43:12;24.50;48.90
46309;DHT22;32037;50.820;6.494;2022-08-21T05:45:41;24.40;48.80
46309;DHT22;32037;50.820;6.494;2022-08-21T05:48:12;24.40;48.80
46309;DHT22;32037;50.820;6.494;2022-08-21T05:50:42;24.40;48.80
46309;DHT22;32037;50.820;6.494;2022-08-21T05:53:13;24.40;48.80
46309;DHT22;32037;50.820;6.494;2022-08-21T05:55:43;24.40;48.90
46309;DHT22;32037;50.820;6.494;2022-08-21T05:58:14;24.40;48.90
46309;DHT22;32037;50.820;6.494;2022-08-21T06:00:44;24.40;48.90
46309;DHT22;32037;50.820;6.494;2022-08-21T06:03:16;24.40;48.90
46309;DHT22;32037;50.820;6.494;2022-08-21T06:05:46;24.40;48.90
46309;DHT22;32037;50.820;6.494;2022-08-21T06:08:19;24.40;48.90
46309;DHT22;32037;50.820;6.494;2022-08-21T06:10:50;24.40;48.90
46309;DHT22;32037;50.820;6.494;2022-08-21T06:13:20;24.40;48.90
46309;DHT22;32037;50.820;6.494;2022-08-21T06:15:49;24.30;48.80
46309;DHT22;32037;50.820;6.494;2022-08-21T06:18:18;24.30;48.90
46309;DHT22;32037;50.820;6.494;2022-08-21T06:20:47;24.30;48.90
46309;DHT22;32037;50.820;6.494;2022-08-21T06:23:17;24.30;48.90
46309;DHT22;32037;50.820;6.494;2022-08-21T06:25:45;24.30;48.80
46309;DHT22;32037;50.820;6.494;2022-08-21T06:28:14;24.30;48.90
46309;DHT22;32037;50.820;6.494;2022-08-21T06:30:43;24.30;48.90
46309;DHT22;32037;50.820;6.494;2022-08-21T06:33:11;24.30;48.90
46309;DHT22;32037;50.820;6.494;2022-08-21T06:35:44;24.30;49.00
46309;DHT22;32037;50.820;6.494;2022-08-21T06:38:12;24.30;48.90
46309;DHT22;32037;50.820;6.494;2022-08-21T06:40:42;24.30;48.80
46309;DHT22;32037;50.820;6.494;2022-08-21T06:43:16;24.30;48.70
46309;DHT22;32037;50.820;6.494;2022-08-21T06:45:46;24.30;48.70
46309;DHT22;32037;50.820;6.494;2022-08-21T06:48:14;24.30;48.70
46309;DHT22;32037;50.820;6.494;2022-08-21T06:50:46;24.30;48.50
46309;DHT22;32037;50.820;6.494;2022-08-21T06:53:17;24.30;48.90
46309;DHT22;32037;50.820;6.494;2022-08-21T06:55:50;24.40;48.70
46309;DHT22;32037;50.820;6.494;2022-08-21T06:58:19;24.50;47.50
46309;DHT22;32037;50.820;6.494;2022-08-21T07:00:49;24.70;46.90
46309;DHT22;32037;50.820;6.494;2022-08-21T07:03:29;24.70;46.50
46309;DHT22;32037;50.820;6.494;2022-08-21T07:05:58;24.80;46.10
46309;DHT22;32037;50.820;6.494;2022-08-21T07:08:27;24.80;45.80
46309;DHT22;32037;50.820;6.494;2022-08-21T07:11:00;24.80;45.70
46309;DHT22;32037;50.820;6.494;2022-08-21T07:13:29;24.90;45.40
46309;DHT22;32037;50.820;6.494;2022-08-21T07:15:57;24.90;45.30
46309;DHT22;32037;50.820;6.494;2022-08-21T07:18:30;24.90;45.40
46309;DHT22;32037;50.820;6.494;2022-08-21T07:21:00;24.90;45.30
46309;DHT22;32037;50.820;6.494;2022-08-21T07:23:30;24.90;45.10
46309;DHT22;32037;50.820;6.494;2022-08-21T07:26:01;24.90;45.00
46309;DHT22;32037;50.820;6.494;2022-08-21T07:28:30;24.80;45.10
46309;DHT22;32037;50.820;6.494;2022-08-21T07:30:59;24.80;44.80
46309;DHT22;32037;50.820;6.494;2022-08-21T07:33:30;24.80;44.60
46309;DHT22;32037;50.820;6.494;2022-08-21T07:35:58;24.70;44.80
46309;DHT22;32037;50.820;6.494;2022-08-21T07:38:27;24.70;44.70
46309;DHT22;32037;50.820;6.494;2022-08-21T07:40:56;24.70;44.90
46309;DHT22;32037;50.820;6.494;2022-08-21T07:43:27;24.70;44.80
46309;DHT22;32037;50.820;6.494;2022-08-21T07:45:56;24.60;45.10
46309;DHT22;32037;50.820;6.494;2022-08-21T07:48:24;24.50;45.40
46309;DHT22;32037;50.820;6.494;2022-08-21T07:50:52;24.40;46.90
46309;DHT22;32037;50.820;6.494;2022-08-21T07:53:22;24.40;45.60
46309;DHT22;32037;50.820;6.494;2022-08-21T07:55:50;24.30;45.50
46309;DHT22;32037;50.820;6.494;2022-08-21T07:58:18;24.30;45.80
46309;DHT22;32037;50.820;6.494;2022-08-21T08:00:48;24.30;45.90
46309;DHT22;32037;50.820;6.494;2022-08-21T08:03:17;24.30;46.10
46309;DHT22;32037;50.820;6.494;2022-08-21T08:05:55;24.30;46.10
46309;DHT22;32037;50.820;6.494;2022-08-21T08:08:23;24.30;46.30
46309;DHT22;32037;50.820;6.494;2022-08-21T08:10:53;24.30;46.30
46309;DHT22;32037;50.820;6.494;2022-08-21T08:13:21;24.20;46.40
46309;DHT22;32037;50.820;6.494;2022-08-21T08:15:51;24.20;46.10
46309;DHT22;32037;50.820;6.494;2022-08-21T08:18:20;24.20;46.30
46309;DHT22;32037;50.820;6.494;2022-08-21T08:20:48;24.20;47.60
46309;DHT22;32037;50.820;6.494;2022-08-21T08:23:16;24.20;46.60
46309;DHT22;32037;50.820;6.494;2022-08-21T08:25:44;24.20;46.40
46309;DHT22;32037;50.820;6.494;2022-08-21T08:28:13;24.20;46.50
46309;DHT22;32037;50.820;6.494;2022-08-21T08:30:44;24.20;46.40
46309;DHT22;32037;50.820;6.494;2022-08-21T08:33:14;24.10;46.40
46309;DHT22;32037;50.820;6.494;2022-08-21T08:35:46;24.20;46.50
46309;DHT22;32037;50.820;6.494;2022-08-21T08:38:15;24.10;46.50
46309;DHT22;32037;50.820;6.494;2022-08-21T08:40:54;24.10;46.60
46309;DHT22;32037;50.820;6.494;2022-08-21T08:43:24;24.10;46.70
46309;DHT22;32037;50.820;6.494;2022-08-21T08:45:53;24.10;46.60
46309;DHT22;32037;50.820;6.494;2022-08-21T08:48:36;24.10;46.70
46309;DHT22;32037;50.820;6.494;2022-08-21T08:51:13;24.10;46.70
46309;DHT22;32037;50.820;6.494;2022-08-21T08:53:49;24.10;46.70
46309;DHT22;32037;50.820;6.494;2022-08-21T08:56:23;24.10;46.90
46309;DHT22;32037;50.820;6.494;2022-08-21T08:58:56;24.10;46.80
46309;DHT22;32037;50.820;6.494;2022-08-21T09:01:26;24.10;46.70
46309;DHT22;32037;50.820;6.494;2022-08-21T09:03:56;24.10;46.80
46309;DHT22;32037;50.820;6.494;2022-08-21T09:06:37;24.10;46.70
46309;DHT22;32037;50.820;6.494;2022-08-21T09:09:21;24.10;46.80
46309;DHT22;32037;50.820;6.494;2022-08-21T09:11:57;24.10;46.80
46309;DHT22;32037;50.820;6.494;2022-08-21T09:14:37;24.10;46.90
46309;DHT22;32037;50.820;6.494;2022-08-21T09:17:17;24.10;46.80
46309;DHT22;32037;50.820;6.494;2022-08-21T09:19:59;24.10;47.00
46309;DHT22;32037;50.820;6.494;2022-08-21T09:22:38;24.10;47.10
46309;DHT22;32037;50.820;6.494;2022-08-21T09:25:12;24.10;47.00
46309;DHT22;32037;50.820;6.494;2022-08-21T09:27:42;24.10;47.20
46309;DHT22;32037;50.820;6.494;2022-08-21T09:30:12;24.10;47.00
46309;DHT22;32037;50.820;6.494;2022-08-21T09:32:41;24.10;47.10
46309;DHT22;32037;50.820;6.494;2022-08-21T09:35:13;24.10;47.10
46309;DHT22;32037;50.820;6.494;2022-08-21T09:37:50;24.10;47.10
46309;DHT22;32037;50.820;6.494;2022-08-21T09:40:27;24.10;47.10
46309;DHT22;32037;50.820;6.494;2022-08-21T09:42:59;24.10;47.10
46309;DHT22;32037;50.820;6.494;2022-08-21T09:45:29;24.10;47.20
46309;DHT22;32037;50.820;6.494;2022-08-21T09:48:11;24.10;47.00
46309;DHT22;32037;50.820;6.494;2022-08-21T09:50:42;24.10;47.00
46309;DHT22;32037;50.820;6.494;2022-08-21T09:53:19;24.10;46.90
46309;DHT22;32037;50.820;6.494;2022-08-21T09:55:54;24.10;47.00
46309;DHT22;32037;50.820;6.494;2022-08-21T09:58:45;24.10;46.80
46309;DHT22;32037;50.820;6.494;2022-08-21T10:01:15;24.10;47.00
46309;DHT22;32037;50.820;6.494;2022-08-21T10:03:45;24.10;48.20
46309;DHT22;32037;50.820;6.494;2022-08-21T10:06:25;24.10;47.10
46309;DHT22;32037;50.820;6.494;2022-08-21T10:09:04;24.10;47.20
46309;DHT22;32037;50.820;6.494;2022-08-21T10:11:33;24.10;47.20
46309;DHT22;32037;50.820;6.494;2022-08-21T10:14:13;24.10;47.20
46309;DHT22;32037;50.820;6.494;2022-08-21T10:16:52;24.10;47.10
46309;DHT22;32037;50.820;6.494;2022-08-21T10:19:31;24.10;47.00
46309;DHT22;32037;50.820;6.494;2022-08-21T10:22:11;24.10;47.00
46309;DHT22;32037;50.820;6.494;2022-08-21T10:24:47;24.10;47.00
46309;DHT22;32037;50.820;6.494;2022-08-21T10:27:25;24.10;47.10
46309;DHT22;32037;50.820;6.494;2022-08-21T10:29:59;24.10;46.90
46309;DHT22;32037;50.820;6.494;2022-08-21T10:32:43;24.10;46.90
46309;DHT22;32037;50.820;6.494;2022-08-21T10:35:18;24.10;46.80
46309;DHT22;32037;50.820;6.494;2022-08-21T10:38:03;24.10;46.20
46309;DHT22;32037;50.820;6.494;2022-08-21T10:40:40;24.10;46.20
46309;DHT22;32037;50.820;6.494;2022-08-21T10:43:25;24.10;46.20
46309;DHT22;32037;50.820;6.494;2022-08-21T10:46:01;24.10;46.50
46309;DHT22;32037;50.820;6.494;2022-08-21T10:48:36;24.10;46.40
46309;DHT22;32037;50.820;6.494;2022-08-21T10:51:10;24.10;46.50
46309;DHT22;32037;50.820;6.494;2022-08-21T10:53:50;24.10;46.60
46309;DHT22;32037;50.820;6.494;2022-08-21T10:56:23;24.10;46.50
46309;DHT22;32037;50.820;6.494;2022-08-21T10:59:05;24.10;46.50
46309;DHT22;32037;50.820;6.494;2022-08-21T11:01:43;24.10;46.50
46309;DHT22;32037;50.820;6.494;2022-08-21T11:04:20;24.10;46.50
46309;DHT22;32037;50.820;6.494;2022-08-21T11:07:01;24.10;46.60
46309;DHT22;32037;50.820;6.494;2022-08-21T11:09:45;24.10;46.70
46309;DHT22;32037;50.820;6.494;2022-08-21T11:12:23;24.10;46.60
46309;DHT22;32037;50.820;6.494;2022-08-21T11:14:56;24.10;46.50
46309;DHT22;32037;50.820;6.494;2022-08-21T11:17:34;24.10;46.60
46309;DHT22;32037;50.820;6.494;2022-08-21T11:20:08;24.10;46.50
46309;DHT22;32037;50.820;6.494;2022-08-21T11:22:43;24.10;46.50
46309;DHT22;32037;50.820;6.494;2022-08-21T11:25:26;24.10;46.60
46309;DHT22;32037;50.820;6.494;2022-08-21T11:28:06;24.10;46.50
46309;DHT22;32037;50.820;6.494;2022-08-21T11:30:48;24.10;46.40
46309;DHT22;32037;50.820;6.494;2022-08-21T11:33:32;24.10;46.50
46309;DHT22;32037;50.820;6.494;2022-08-21T11:36:10;24.10;46.50
46309;DHT22;32037;50.820;6.494;2022-08-21T11:38:42;24.20;46.70
46309;DHT22;32037;50.820;6.494;2022-08-21T11:41:23;24.10;46.70
46309;DHT22;32037;50.820;6.494;2022-08-21T11:43:58;24.10;46.70
46309;DHT22;32037;50.820;6.494;2022-08-21T11:46:37;24.10;46.60
46309;DHT22;32037;50.820;6.494;2022-08-21T11:49:34;24.10;46.40
46309;DHT22;32037;50.820;6.494;2022-08-21T11:52:13;24.10;46.50
46309;DHT22;32037;50.820;6.494;2022-08-21T11:54:46;24.10;46.60
46309;DHT22;32037;50.820;6.494;2022-08-21T11:57:25;24.20;46.40
46309;DHT22;32037;50.820;6.494;2022-08-21T12:00:00;24.20;46.60
46309;DHT22;32037;50.820;6.494;2022-08-21T12:02:43;24.20;46.60
46309;DHT22;32037;50.820;6.494;2022-08-21T12:05:25;24.20;46.70
46309;DHT22;32037;50.820;6.494;2022-08-21T12:08:04;24.20;46.50
46309;DHT22;32037;50.820;6.494;2022-08-21T12:10:37;24.20;46.10
46309;DHT22;32037;50.820;6.494;2022-08-21T12:13:11;24.20;46.40
46309;DHT22;32037;50.820;6.494;2022-08-21T12:15:41;24.20;46.40
46309;DHT22;32037;50.820;6.494;2022-08-21T12:18:23;24.20;46.50
46309;DHT22;32037;50.820;6.494;2022-08-21T12:21:02;24.20;46.60
46309;DHT22;32037;50.820;6.494;2022-08-21T12:23:33;24.20;46.70
46309;DHT22;32037;50.820;6.494;2022-08-21T12:26:18;24.20;46.50
46309;DHT22;32037;50.820;6.494;2022-08-21T12:28:49;24.20;46.70
46309;DHT22;32037;50.820;6.494;2022-08-21T12:31:20;24.20;46.80
46309;DHT22;32037;50.820;6.494;2022-08-21T12:33:58;24.20;46.80
46309;DHT22;32037;50.820;6.494;2022-08-21T12:36:39;24.20;46.80
46309;DHT22;32037;50.820;6.494;2022-08-21T12:39:13;24.20;46.70
46309;DHT22;32037;50.820;6.494;2022-08-21T12:41:48;24.30;46.80
46309;DHT22;32037;50.820;6.494;2022-08-21T12:44:23;24.30;46.70
46309;DHT22;32037;50.820;6.494;2022-08-21T12:46:57;24.30;46.70
46309;DHT22;32037;50.820;6.494;2022-08-21T12:49:28;24.30;46.70
46309;DHT22;32037;50.820;6.494;2022-08-21T12:52:03;24.30;46.80
46309;DHT22;32037;50.820;6.494;2022-08-21T12:54:39;24.30;46.80
46309;DHT22;32037;50.820;6.494;2022-08-21T12:57:09;24.30;46.90
46309;DHT22;32037;50.820;6.494;2022-08-21T12:59:46;24.30;46.70
46309;DHT22;32037;50.820;6.494;2022-08-21T13:02:22;24.30;47.00
46309;DHT22;32037;50.820;6.494;2022-08-21T13:04:52;24.30;46.80
46309;DHT22;32037;50.820;6.494;2022-08-21T13:07:27;24.30;46.80
46309;DHT22;32037;50.820;6.494;2022-08-21T13:09:57;24.30;46.80
46309;DHT22;32037;50.820;6.494;2022-08-21T13:12:27;24.30;47.00
46309;DHT22;32037;50.820;6.494;2022-08-21T13:15:03;24.40;47.00
46309;DHT22;32037;50.820;6.494;2022-08-21T13:17:41;24.40;46.60
46309;DHT22;32037;50.820;6.494;2022-08-21T13:20:19;24.40;46.30
46309;DHT22;32037;50.820;6.494;2022-08-21T13:22:48;24.40;47.40
46309;DHT22;32037;50.820;6.494;2022-08-21T13:25:17;24.50;46.40
46309;DHT22;32037;50.820;6.494;2022-08-21T13:27:58;24.50;45.80
46309;DHT22;32037;50.820;6.494;2022-08-21T13:30:28;24.50;45.90
46309;DHT22;32037;50.820;6.494;2022-08-21T13:32:59;24.50;46.10
46309;DHT22;32037;50.820;6.494;2022-08-21T13:35:31;24.50;46.20
46309;DHT22;32037;50.820;6.494;2022-08-21T13:38:03;24.50;46.00
46309;DHT22;32037;50.820;6.494;2022-08-21T13:40:41;24.50;46.40
46309;DHT22;32037;50.820;6.494;2022-08-21T13:43:12;24.50;46.30
46309;DHT22;32037;50.820;6.494;2022-08-21T13:45:51;24.50;46.20
46309;DHT22;32037;50.820;6.494;2022-08-21T13:48:23;24.50;46.10
46309;DHT22;32037;50.820;6.494;2022-08-21T13:50:53;24.50;46.00
46309;DHT22;32037;50.820;6.494;2022-08-21T13:53:26;24.50;47.00
46309;DHT22;32037;50.820;6.494;2022-08-21T13:55:55;24.50;45.90
46309;DHT22;32037;50.820;6.494;2022-08-21T13:58:28;24.50;46.10
46309;DHT22;32037;50.820;6.494;2022-08-21T14:00:59;24.50;46.00
46309;DHT22;32037;50.820;6.494;2022-08-21T14:03:34;24.50;46.20
46309;DHT22;32037;50.820;6.494;2022-08-21T14:06:11;24.50;46.20
46309;DHT22;32037;50.820;6.494;2022-08-21T14:08:41;24.50;46.20
46309;DHT22;32037;50.820;6.494;2022-08-21T14:11:11;24.50;46.30
46309;DHT22;32037;50.820;6.494;2022-08-21T14:13:42;24.50;46.20
46309;DHT22;32037;50.820;6.494;2022-08-21T14:16:15;24.50;44.90
46309;DHT22;32037;50.820;6.494;2022-08-21T14:18:51;24.50;45.60
46309;DHT22;32037;50.820;6.494;2022-08-21T14:21:31;24.50;46.20
46309;DHT22;32037;50.820;6.494;2022-08-21T14:24:03;24.50;45.90
46309;DHT22;32037;50.820;6.494;2022-08-21T14:26:34;24.50;45.70
46309;DHT22;32037;50.820;6.494;2022-08-21T14:29:08;24.50;45.50
46309;DHT22;32037;50.820;6.494;2022-08-21T14:31:38;24.50;45.70
46309;DHT22;32037;50.820;6.494;2022-08-21T14:34:11;24.50;45.80
46309;DHT22;32037;50.820;6.494;2022-08-21T14:36:46;24.50;45.70
46309;DHT22;32037;50.820;6.494;2022-08-21T14:39:14;24.60;45.80
46309;DHT22;32037;50.820;6.494;2022-08-21T14:41:43;24.60;45.40
46309;DHT22;32037;50.820;6.494;2022-08-21T14:44:12;24.60;45.60
46309;DHT22;32037;50.820;6.494;2022-08-21T14:46:42;24.60;44.40
46309;DHT22;32037;50.820;6.494;2022-08-21T14:49:23;24.60;44.30
46309;DHT22;32037;50.820;6.494;2022-08-21T14:51:53;24.60;44.50
46309;DHT22;32037;50.820;6.494;2022-08-21T14:54:25;24.60;44.70
46309;DHT22;32037;50.820;6.494;2022-08-21T14:56:59;24.60;44.70
46309;DHT22;32037;50.820;6.494;2022-08-21T14:59:29;24.60;45.90
46309;DHT22;32037;50.820;6.494;2022-08-21T15:02:00;24.60;44.90
46309;DHT22;32037;50.820;6.494;2022-08-21T15:04:31;24.60;45.10
46309;DHT22;32037;50.820;6.494;2022-08-21T15:06:59;24.60;44.90
46309;DHT22;32037;50.820;6.494;2022-08-21T15:09:28;24.60;44.80
46309;DHT22;32037;50.820;6.494;2022-08-21T15:11:58;24.70;45.20
46309;DHT22;32037;50.820;6.494;2022-08-21T15:14:29;24.70;45.30
46309;DHT22;32037;50.820;6.494;2022-08-21T15:17:00;24.70;45.40
46309;DHT22;32037;50.820;6.494;2022-08-21T15:19:30;24.70;45.10
46309;DHT22;32037;50.820;6.494;2022-08-21T15:21:58;24.70;45.20
46309;DHT22;32037;50.820;6.494;2022-08-21T15:24:27;24.70;45.10
46309;DHT22;32037;50.820;6.494;2022-08-21T15:26:56;24.70;45.00
46309;DHT22;32037;50.820;6.494;2022-08-21T15:29:24;24.70;45.20
46309;DHT22;32037;50.820;6.494;2022-08-21T15:32:14;24.70;45.20
46309;DHT22;32037;50.820;6.494;2022-08-21T15:34:42;24.70;45.30
46309;DHT22;32037;50.820;6.494;2022-08-21T15:37:11;24.70;45.10
46309;DHT22;32037;50.820;6.494;2022-08-21T15:39:39;24.70;45.10
46309;DHT22;32037;50.820;6.494;2022-08-21T15:42:08;24.70;45.00
46309;DHT22;32037;50.820;6.494;2022-08-21T15:44:38;24.80;45.10
46309;DHT22;32037;50.820;6.494;2022-08-21T15:47:11;24.80;44.80
46309;DHT22;32037;50.820;6.494;2022-08-21T15:49:40;24.80;45.00
46309;DHT22;32037;50.820;6.494;2022-08-21T15:52:12;24.70;44.90
46309;DHT22;32037;50.820;6.494;2022-08-21T15:54:40;24.80;45.10
46309;DHT22;32037;50.820;6.494;2022-08-21T15:57:10;24.80;45.10
46309;DHT22;32037;50.820;6.494;2022-08-21T15:59:41;24.80;44.70
46309;DHT22;32037;50.820;6.494;2022-08-21T16:02:15;24.80;44.60